sensor_id;sensor_type;location;lat;lon;timestamp;pressure;altitude;pressure_sealevel;temperature;humidity
41140;BME280;26881;48.784;9.192;2023-04-07T00:01:54;98642.16;;;7.70;84.54
41140;BME280;26881;48.784;9.192;2023-04-07T00:07:16;98636.53;;;7.79;84.37
41140;BME280;26881;48.784;9.192;2023-04-07T00:12:38;98635.81;;;7.76;85.58
41140;BME280;26881;48.784;9.192;2023-04-07T00:17:59;98632.69;;;7.69;85.84
41140;BME280;26881;48.784;9.192;2023-04-07T00:23:21;98624.16;;;7.66;84.59
41140;BME280;26881;48.784;9.192;2023-04-07T00:28:43;98612.81;;;7.67;84.76
41140;BME280;26881;48.784;9.192;2023-04-07T00:34:05;98602.41;;;7.67;82.63
41140;BME280;26881;48.784;9.192;2023-04-07T00:39:27;98596.50;;;7.63;83.73
41140;BME280;26881;48.784;9.192;2023-04-07T00:44:49;98603.16;;;7.69;84.65
41140;BME280;26881;48.784;9.192;2023-04-07T00:50:11;98594.09;;;7.77;83.38
41140;BME280;26881;48.784;9.192;2023-04-07T00:55:32;98585.50;;;7.75;83.72
41140;BME280;26881;48.784;9.192;2023-04-07T01:01:22;98575.09;;;7.75;83.64
41140;BME280;26881;48.784;9.192;2023-04-07T01:06:47;98568.34;;;7.71;84.56
41140;BME280;26881;48.784;9.192;2023-04-07T01:12:15;98557.91;;;7.54;85.10
41140;BME280;26881;48.784;9.192;2023-04-07T01:17:44;98561.09;;;7.78;84.04
41140;BME280;26881;48.784;9.192;2023-04-07T01:23:12;98552.31;;;7.62;85.91
41140;BME280;26881;48.784;9.192;2023-04-07T01:28:48;98548.63;;;7.48;86.69
41140;BME280;26881;48.784;9.192;2023-04-07T01:34:16;98540.88;;;7.47;86.55
41140;BME280;26881;48.784;9.192;2023-04-07T01:39:38;98537.66;;;7.42;87.23
41140;BME280;26881;48.784;9.192;2023-04-07T01:45:01;98535.97;;;7.41;87.11
41140;BME280;26881;48.784;9.192;2023-04-07T01:50:23;98527.47;;;7.37;87.18
41140;BME280;26881;48.784;9.192;2023-04-07T01:55:45;98526.66;;;7.54;84.50
41140;BME280;26881;48.784;9.192;2023-04-07T02:01:07;98522.84;;;7.61;83.54
41140;BME280;26881;48.784;9.192;2023-04-07T02:06:43;98528.84;;;7.63;84.49
41140;BME280;26881;48.784;9.192;2023-04-07T02:12:08;98522.69;;;7.64;83.03
41140;BME280;26881;48.784;9.192;2023-04-07T02:17:35;98507.41;;;7.75;81.71
41140;BME280;26881;48.784;9.192;2023-04-07T02:22:58;98505.63;;;7.76;82.19
41140;BME280;26881;48.784;9.192;2023-04-07T02:28:20;98495.22;;;7.76;83.11
41140;BME280;26881;48.784;9.192;2023-04-07T02:33:41;98505.88;;;7.71;81.87
41140;BME280;26881;48.784;9.192;2023-04-07T02:39:03;98496.09;;;7.94;79.90
41140;BME280;26881;48.784;9.192;2023-04-07T02:44:25;98496.69;;;7.99;78.41
41140;BME280;26881;48.784;9.192;2023-04-07T02:49:47;98496.69;;;7.99;79.88
41140;BME280;26881;48.784;9.192;2023-04-07T02:55:08;98484.28;;;8.04;79.28
41140;BME280;26881;48.784;9.192;2023-04-07T03:00:30;98486.16;;;8.02;77.54
41140;BME280;26881;48.784;9.192;2023-04-07T03:05:52;98478.25;;;8.03;77.76
41140;BME280;26881;48.784;9.192;2023-04-07T03:11:14;98473.56;;;8.10;80.41
41140;BME280;26881;48.784;9.192;2023-04-07T03:16:36;98469.28;;;7.92;81.32
41140;BME280;26881;48.784;9.192;2023-04-07T03:21:57;98464.25;;;7.89;82.20
41140;BME280;26881;48.784;9.192;2023-04-07T03:27:19;98460.88;;;7.87;80.36
41140;BME280;26881;48.784;9.192;2023-04-07T03:32:41;98461.09;;;7.82;81.89
41140;BME280;26881;48.784;9.192;2023-04-07T03:38:03;98456.56;;;7.68;82.07
41140;BME280;26881;48.784;9.192;2023-04-07T03:43:24;98440.78;;;7.71;81.10
41140;BME280;26881;48.784;9.192;2023-04-07T03:48:47;98450.75;;;7.80;80.73
41140;BME280;26881;48.784;9.192;2023-04-07T03:54:08;98450.91;;;7.77;79.52
41140;BME280;26881;48.784;9.192;2023-04-07T03:59:30;98445.06;;;7.90;77.94
41140;BME280;26881;48.784;9.192;2023-04-07T04:04:52;98441.00;;;8.01;78.44
41140;BME280;26881;48.784;9.192;2023-04-07T04:10:14;98440.94;;;8.03;76.65
41140;BME280;26881;48.784;9.192;2023-04-07T04:15:36;98444.31;;;8.05;78.51
41140;BME280;26881;48.784;9.192;2023-04-07T04:20:58;98439.31;;;8.18;80.31
41140;BME280;26881;48.784;9.192;2023-04-07T04:26:20;98440.31;;;8.15;79.92
41140;BME280;26881;48.784;9.192;2023-04-07T04:31:46;98427.91;;;8.20;78.83
41140;BME280;26881;48.784;9.192;2023-04-07T04:37:08;98426.22;;;8.19;79.24
41140;BME280;26881;48.784;9.192;2023-04-07T04:42:30;98435.25;;;8.12;79.01
41140;BME280;26881;48.784;9.192;2023-04-07T04:47:54;98438.41;;;8.01;80.55
41140;BME280;26881;48.784;9.192;2023-04-07T04:53:16;98433.91;;;8.05;80.08
41140;BME280;26881;48.784;9.192;2023-04-07T04:58:38;98435.56;;;8.06;79.14
41140;BME280;26881;48.784;9.192;2023-04-07T05:04:01;98432.66;;;8.12;79.80
41140;BME280;26881;48.784;9.192;2023-04-07T05:09:23;98432.66;;;8.12;79.58
41140;BME280;26881;48.784;9.192;2023-04-07T05:14:44;98435.50;;;8.08;80.70
41140;BME280;26881;48.784;9.192;2023-04-07T05:20:08;98435.28;;;7.95;81.16
41140;BME280;26881;48.784;9.192;2023-04-07T05:25:32;98436.25;;;7.92;82.17
41140;BME280;26881;48.784;9.192;2023-04-07T05:30:53;98443.84;;;7.97;82.17
41140;BME280;26881;48.784;9.192;2023-04-07T05:36:15;98436.66;;;8.02;82.46
41140;BME280;26881;48.784;9.192;2023-04-07T05:41:37;98436.44;;;8.07;81.89
41140;BME280;26881;48.784;9.192;2023-04-07T05:46:59;98436.63;;;8.19;81.10
41140;BME280;26881;48.784;9.192;2023-04-07T05:52:21;98434.78;;;8.21;80.83
41140;BME280;26881;48.784;9.192;2023-04-07T05:57:43;98441.53;;;8.08;81.80
41140;BME280;26881;48.784;9.192;2023-04-07T06:03:05;98443.38;;;8.23;82.61
41140;BME280;26881;48.784;9.192;2023-04-07T06:08:26;98441.31;;;8.13;81.50
41140;BME280;26881;48.784;9.192;2023-04-07T06:13:48;98442.00;;;8.16;80.63
41140;BME280;26881;48.784;9.192;2023-04-07T06:19:10;98444.69;;;8.15;78.56
41140;BME280;26881;48.784;9.192;2023-04-07T06:24:32;98446.69;;;8.60;78.95
41140;BME280;26881;48.784;9.192;2023-04-07T06:29:55;98443.97;;;8.46;79.67
41140;BME280;26881;48.784;9.192;2023-04-07T06:35:17;98441.97;;;8.34;81.14
41140;BME280;26881;48.784;9.192;2023-04-07T06:40:38;98442.03;;;8.50;79.76
41140;BME280;26881;48.784;9.192;2023-04-07T06:46:00;98437.94;;;8.61;77.21
41140;BME280;26881;48.784;9.192;2023-04-07T06:51:22;98445.97;;;8.74;76.97
41140;BME280;26881;48.784;9.192;2023-04-07T06:56:44;98439.47;;;8.65;76.94
41140;BME280;26881;48.784;9.192;2023-04-07T07:02:06;98435.59;;;8.57;77.41
41140;BME280;26881;48.784;9.192;2023-04-07T07:07:28;98435.16;;;8.64;77.17
41140;BME280;26881;48.784;9.192;2023-04-07T07:12:50;98432.75;;;8.77;76.14
41140;BME280;26881;48.784;9.192;2023-04-07T07:18:12;98432.00;;;8.75;76.18
41140;BME280;26881;48.784;9.192;2023-04-07T07:23:33;98438.28;;;8.71;75.24
41140;BME280;26881;48.784;9.192;2023-04-07T07:28:55;98437.47;;;8.71;74.16
41140;BME280;26881;48.784;9.192;2023-04-07T07:34:17;98438.63;;;8.81;73.74
41140;BME280;26881;48.784;9.192;2023-04-07T07:39:39;98441.69;;;8.89;74.75
41140;BME280;26881;48.784;9.192;2023-04-07T07:45:00;98447.41;;;8.96;73.75
41140;BME280;26881;48.784;9.192;2023-04-07T07:50:22;98445.63;;;8.96;73.43
41140;BME280;26881;48.784;9.192;2023-04-07T07:55:45;98460.84;;;9.04;73.00
41140;BME280;26881;48.784;9.192;2023-04-07T08:01:07;98454.81;;;9.03;72.81
41140;BME280;26881;48.784;9.192;2023-04-07T08:06:29;98454.28;;;8.97;76.29
41140;BME280;26881;48.784;9.192;2023-04-07T08:11:52;98454.81;;;9.03;75.63
41140;BME280;26881;48.784;9.192;2023-04-07T08:17:13;98451.25;;;9.36;73.41
41140;BME280;26881;48.784;9.192;2023-04-07T08:22:36;98457.28;;;9.53;72.98
41140;BME280;26881;48.784;9.192;2023-04-07T08:27:58;98466.13;;;9.66;72.53
41140;BME280;26881;48.784;9.192;2023-04-07T08:33:19;98461.41;;;9.73;68.59
41140;BME280;26881;48.784;9.192;2023-04-07T08:38:41;98468.03;;;9.78;69.04
41140;BME280;26881;48.784;9.192;2023-04-07T08:44:03;98466.69;;;9.71;69.96
41140;BME280;26881;48.784;9.192;2023-04-07T08:49:30;98469.53;;;9.82;69.99
41140;BME280;26881;48.784;9.192;2023-04-07T08:54:53;98457.41;;;9.81;69.54
41140;BME280;26881;48.784;9.192;2023-04-07T09:00:17;98459.41;;;9.92;68.06
41140;BME280;26881;48.784;9.192;2023-04-07T09:05:39;98466.41;;;9.91;69.04
41140;BME280;26881;48.784;9.192;2023-04-07T09:11:01;98470.34;;;10.13;69.10
41140;BME280;26881;48.784;9.192;2023-04-07T09:16:23;98469.53;;;10.12;67.10
41140;BME280;26881;48.784;9.192;2023-04-07T09:21:48;98474.34;;;10.34;66.42
41140;BME280;26881;48.784;9.192;2023-04-07T09:27:17;98460.13;;;10.24;66.94
41140;BME280;26881;48.784;9.192;2023-04-07T09:32:39;98460.09;;;10.40;66.37
41140;BME280;26881;48.784;9.192;2023-04-07T09:38:07;98464.91;;;10.46;66.29
41140;BME280;26881;48.784;9.192;2023-04-07T09:43:29;98468.28;;;10.63;65.60
41140;BME280;26881;48.784;9.192;2023-04-07T09:49:03;98462.59;;;10.70;65.14
41140;BME280;26881;48.784;9.192;2023-04-07T09:54:41;98469.31;;;10.74;65.26
41140;BME280;26881;48.784;9.192;2023-04-07T10:00:03;98457.84;;;10.77;64.80
41140;BME280;26881;48.784;9.192;2023-04-07T10:05:27;98463.81;;;10.93;64.23
41140;BME280;26881;48.784;9.192;2023-04-07T10:10:49;98459.22;;;10.97;64.64
41140;BME280;26881;48.784;9.192;2023-04-07T10:16:12;98455.56;;;11.00;64.67
41140;BME280;26881;48.784;9.192;2023-04-07T10:21:37;98458.28;;;10.98;64.30
41140;BME280;26881;48.784;9.192;2023-04-07T10:27:04;98458.16;;;11.00;62.92
41140;BME280;26881;48.784;9.192;2023-04-07T10:32:28;98460.38;;;11.20;63.30
41140;BME280;26881;48.784;9.192;2023-04-07T10:43:38;98464.41;;;11.11;62.97
41140;BME280;26881;48.784;9.192;2023-04-07T10:49:08;98453.03;;;11.12;63.78
41140;BME280;26881;48.784;9.192;2023-04-07T10:54:30;98450.88;;;11.19;63.95
41140;BME280;26881;48.784;9.192;2023-04-07T11:05:32;98449.47;;;11.41;62.89
41140;BME280;26881;48.784;9.192;2023-04-07T11:10:54;98458.94;;;11.56;61.34
41140;BME280;26881;48.784;9.192;2023-04-07T11:16:34;98447.03;;;12.05;60.90
41140;BME280;26881;48.784;9.192;2023-04-07T11:22:17;98450.09;;;11.98;60.35
41140;BME280;26881;48.784;9.192;2023-04-07T11:27:43;98450.16;;;11.84;60.35
41140;BME280;26881;48.784;9.192;2023-04-07T11:33:06;98454.56;;;11.56;60.23
41140;BME280;26881;48.784;9.192;2023-04-07T11:38:33;98456.22;;;11.45;63.85
41140;BME280;26881;48.784;9.192;2023-04-07T11:44:09;98466.22;;;11.38;65.92
41140;BME280;26881;48.784;9.192;2023-04-07T11:49:31;98475.75;;;11.39;68.82
41140;BME280;26881;48.784;9.192;2023-04-07T11:54:53;98484.56;;;11.38;67.28
41140;BME280;26881;48.784;9.192;2023-04-07T12:00:15;98495.63;;;11.29;68.15
41140;BME280;26881;48.784;9.192;2023-04-07T12:05:42;98490.22;;;11.17;69.46
41140;BME280;26881;48.784;9.192;2023-04-07T12:11:04;98499.31;;;11.12;72.46
41140;BME280;26881;48.784;9.192;2023-04-07T12:16:25;98494.63;;;11.03;74.77
41140;BME280;26881;48.784;9.192;2023-04-07T12:21:48;98501.00;;;10.70;80.38
41140;BME280;26881;48.784;9.192;2023-04-07T12:27:10;98505.66;;;10.50;81.05
41140;BME280;26881;48.784;9.192;2023-04-07T12:32:32;98503.16;;;10.49;78.11
41140;BME280;26881;48.784;9.192;2023-04-07T12:37:57;98507.63;;;10.47;80.53
41140;BME280;26881;48.784;9.192;2023-04-07T12:43:19;98500.53;;;10.49;82.53
41140;BME280;26881;48.784;9.192;2023-04-07T12:48:40;98496.78;;;10.53;83.93
41140;BME280;26881;48.784;9.192;2023-04-07T12:54:02;98503.50;;;10.57;83.50
41140;BME280;26881;48.784;9.192;2023-04-07T12:59:24;98493.53;;;10.64;82.09
41140;BME280;26881;48.784;9.192;2023-04-07T13:04:46;98491.38;;;10.56;78.90
41140;BME280;26881;48.784;9.192;2023-04-07T13:10:08;98492.78;;;10.62;79.32
41140;BME280;26881;48.784;9.192;2023-04-07T13:15:30;98492.78;;;10.62;78.61
41140;BME280;26881;48.784;9.192;2023-04-07T13:20:52;98496.88;;;10.66;78.88
41140;BME280;26881;48.784;9.192;2023-04-07T13:26:33;98507.50;;;10.63;76.82
41140;BME280;26881;48.784;9.192;2023-04-07T13:32:05;98499.41;;;10.67;76.20
41140;BME280;26881;48.784;9.192;2023-04-07T13:37:27;98501.19;;;10.67;78.14
41140;BME280;26881;48.784;9.192;2023-04-07T13:42:49;98506.25;;;10.70;78.31
41140;BME280;26881;48.784;9.192;2023-04-07T13:48:11;98494.16;;;10.67;78.33
41140;BME280;26881;48.784;9.192;2023-04-07T13:53:33;98488.75;;;10.70;80.32
41140;BME280;26881;48.784;9.192;2023-04-07T13:58:55;98488.28;;;10.64;80.19
41140;BME280;26881;48.784;9.192;2023-04-07T14:04:16;98488.38;;;10.62;78.94
41140;BME280;26881;48.784;9.192;2023-04-07T14:09:38;98491.47;;;10.69;78.04
41140;BME280;26881;48.784;9.192;2023-04-07T14:15:00;98488.38;;;10.76;77.92
41140;BME280;26881;48.784;9.192;2023-04-07T14:20:22;98487.25;;;10.81;76.76
41140;BME280;26881;48.784;9.192;2023-04-07T14:25:47;98485.03;;;10.89;76.63
41140;BME280;26881;48.784;9.192;2023-04-07T14:31:15;98485.66;;;10.92;75.37
41140;BME280;26881;48.784;9.192;2023-04-07T14:36:37;98488.66;;;11.01;75.48
41140;BME280;26881;48.784;9.192;2023-04-07T14:41:59;98494.16;;;11.10;75.81
41140;BME280;26881;48.784;9.192;2023-04-07T14:47:21;98484.81;;;11.06;76.47
41140;BME280;26881;48.784;9.192;2023-04-07T14:52:43;98481.56;;;11.03;75.82
41140;BME280;26881;48.784;9.192;2023-04-07T14:58:05;98488.91;;;11.10;76.40
41140;BME280;26881;48.784;9.192;2023-04-07T15:03:26;98495.94;;;11.10;76.32
41140;BME280;26881;48.784;9.192;2023-04-07T15:08:48;98498.63;;;11.08;75.84
41140;BME280;26881;48.784;9.192;2023-04-07T15:14:11;98490.78;;;11.08;76.68
41140;BME280;26881;48.784;9.192;2023-04-07T15:19:32;98503.03;;;11.08;74.29
41140;BME280;26881;48.784;9.192;2023-04-07T15:24:54;98504.53;;;11.12;69.91
41140;BME280;26881;48.784;9.192;2023-04-07T15:30:16;98502.84;;;11.11;72.60
41140;BME280;26881;48.784;9.192;2023-04-07T15:35:41;98496.19;;;11.20;72.21
41140;BME280;26881;48.784;9.192;2023-04-07T15:41:03;98503.66;;;11.26;71.63
41140;BME280;26881;48.784;9.192;2023-04-07T15:46:25;98510.84;;;11.36;69.75
41140;BME280;26881;48.784;9.192;2023-04-07T15:51:47;98502.59;;;11.43;70.42
41140;BME280;26881;48.784;9.192;2023-04-07T15:57:09;98511.09;;;11.46;71.56
41140;BME280;26881;48.784;9.192;2023-04-07T16:02:32;98512.38;;;11.53;72.71
41140;BME280;26881;48.784;9.192;2023-04-07T16:07:54;98516.97;;;11.50;72.36
41140;BME280;26881;48.784;9.192;2023-04-07T16:13:15;98520.72;;;11.46;71.27
41140;BME280;26881;48.784;9.192;2023-04-07T16:18:37;98526.06;;;11.44;71.67
41140;BME280;26881;48.784;9.192;2023-04-07T16:23:59;98531.56;;;11.39;71.97
41140;BME280;26881;48.784;9.192;2023-04-07T16:29:21;98528.91;;;11.27;72.50
41140;BME280;26881;48.784;9.192;2023-04-07T16:34:45;98535.06;;;11.26;72.45
41140;BME280;26881;48.784;9.192;2023-04-07T16:40:08;98542.47;;;11.19;74.27
41140;BME280;26881;48.784;9.192;2023-04-07T16:45:30;98542.00;;;11.27;72.29
41140;BME280;26881;48.784;9.192;2023-04-07T16:50:52;98551.66;;;11.12;75.56
41140;BME280;26881;48.784;9.192;2023-04-07T16:56:18;98553.50;;;10.95;75.95
41140;BME280;26881;48.784;9.192;2023-04-07T17:01:41;98554.34;;;10.82;77.27
41140;BME280;26881;48.784;9.192;2023-04-07T17:07:04;98560.22;;;10.85;77.48
41140;BME280;26881;48.784;9.192;2023-04-07T17:12:26;98565.75;;;10.81;77.31
41140;BME280;26881;48.784;9.192;2023-04-07T17:17:48;98569.31;;;10.80;75.76
41140;BME280;26881;48.784;9.192;2023-04-07T17:23:10;98592.38;;;10.73;77.52
41140;BME280;26881;48.784;9.192;2023-04-07T17:28:32;98588.50;;;10.64;77.79
41140;BME280;26881;48.784;9.192;2023-04-07T17:33:54;98590.38;;;10.62;78.53
41140;BME280;26881;48.784;9.192;2023-04-07T17:39:16;98602.69;;;10.60;80.13
41140;BME280;26881;48.784;9.192;2023-04-07T17:44:38;98603.47;;;10.76;78.86
41140;BME280;26881;48.784;9.192;2023-04-07T17:49:59;98613.94;;;10.76;74.76
41140;BME280;26881;48.784;9.192;2023-04-07T17:55:22;98629.75;;;10.89;74.62
41140;BME280;26881;48.784;9.192;2023-04-07T18:00:44;98634.50;;;10.83;74.55
41140;BME280;26881;48.784;9.192;2023-04-07T18:06:07;98641.69;;;10.79;75.44
41140;BME280;26881;48.784;9.192;2023-04-07T18:11:29;98647.13;;;10.76;76.36
41140;BME280;26881;48.784;9.192;2023-04-07T18:16:53;98660.47;;;10.71;76.56
41140;BME280;26881;48.784;9.192;2023-04-07T18:22:15;98659.34;;;10.75;75.35
41140;BME280;26881;48.784;9.192;2023-04-07T18:27:38;98674.06;;;10.62;74.22
41140;BME280;26881;48.784;9.192;2023-04-07T18:33:00;98683.19;;;10.55;75.91
41140;BME280;26881;48.784;9.192;2023-04-07T18:38:22;98696.19;;;10.57;73.64
41140;BME280;26881;48.784;9.192;2023-04-07T18:43:44;98699.50;;;10.44;74.45
41140;BME280;26881;48.784;9.192;2023-04-07T18:49:09;98715.03;;;10.31;75.43
41140;BME280;26881;48.784;9.192;2023-04-07T18:54:31;98722.25;;;10.26;74.37
41140;BME280;26881;48.784;9.192;2023-04-07T18:59:54;98726.03;;;10.21;74.48
41140;BME280;26881;48.784;9.192;2023-04-07T19:05:16;98732.97;;;10.22;74.72
41140;BME280;26881;48.784;9.192;2023-04-07T19:10:37;98728.91;;;10.16;75.93
41140;BME280;26881;48.784;9.192;2023-04-07T19:16:00;98742.91;;;10.15;75.38
41140;BME280;26881;48.784;9.192;2023-04-07T19:21:22;98748.22;;;10.13;76.19
41140;BME280;26881;48.784;9.192;2023-04-07T19:26:44;98752.00;;;10.08;76.60
41140;BME280;26881;48.784;9.192;2023-04-07T19:32:05;98755.78;;;9.86;78.00
41140;BME280;26881;48.784;9.192;2023-04-07T19:37:27;98760.06;;;9.87;77.97
41140;BME280;26881;48.784;9.192;2023-04-07T19:42:52;98763.69;;;9.85;78.56
41140;BME280;26881;48.784;9.192;2023-04-07T19:48:16;98768.22;;;9.81;79.11
41140;BME280;26881;48.784;9.192;2023-04-07T19:53:38;98770.53;;;9.87;78.33
41140;BME280;26881;48.784;9.192;2023-04-07T19:58:59;98773.19;;;9.86;77.94
41140;BME280;26881;48.784;9.192;2023-04-07T20:04:21;98773.63;;;9.78;79.26
41140;BME280;26881;48.784;9.192;2023-04-07T20:09:43;98777.72;;;9.66;79.76
41140;BME280;26881;48.784;9.192;2023-04-07T20:15:06;98774.56;;;9.77;79.88
41140;BME280;26881;48.784;9.192;2023-04-07T20:20:28;98783.63;;;9.70;80.09
41140;BME280;26881;48.784;9.192;2023-04-07T20:25:50;98786.38;;;9.67;80.90
41140;BME280;26881;48.784;9.192;2023-04-07T20:31:12;98786.84;;;9.75;80.67
41140;BME280;26881;48.784;9.192;2023-04-07T20:36:34;98781.13;;;9.84;80.80
41140;BME280;26881;48.784;9.192;2023-04-07T20:41:55;98795.03;;;9.85;80.63
41140;BME280;26881;48.784;9.192;2023-04-07T20:47:17;98794.50;;;9.78;80.43
41140;BME280;26881;48.784;9.192;2023-04-07T20:52:39;98792.06;;;9.75;81.29
41140;BME280;26881;48.784;9.192;2023-04-07T20:58:03;98792.84;;;9.77;80.99
41140;BME280;26881;48.784;9.192;2023-04-07T21:03:26;98800.44;;;9.82;80.94
41140;BME280;26881;48.784;9.192;2023-04-07T21:08:48;98804.06;;;9.79;81.03
41140;BME280;26881;48.784;9.192;2023-04-07T21:14:10;98804.38;;;9.73;81.20
41140;BME280;26881;48.784;9.192;2023-04-07T21:19:33;98806.28;;;9.69;82.23
41140;BME280;26881;48.784;9.192;2023-04-07T21:24:55;98809.63;;;9.56;81.92
41140;BME280;26881;48.784;9.192;2023-04-07T21:30:17;98810.13;;;9.62;81.79
41140;BME280;26881;48.784;9.192;2023-04-07T21:35:41;98814.06;;;9.54;82.03
41140;BME280;26881;48.784;9.192;2023-04-07T21:41:03;98813.22;;;9.53;82.64
41140;BME280;26881;48.784;9.192;2023-04-07T21:46:25;98812.53;;;9.49;82.27
41140;BME280;26881;48.784;9.192;2023-04-07T21:51:48;98807.75;;;9.58;82.66
41140;BME280;26881;48.784;9.192;2023-04-07T21:57:09;98813.69;;;9.61;81.53
41140;BME280;26881;48.784;9.192;2023-04-07T22:02:33;98810.00;;;9.65;81.94
41140;BME280;26881;48.784;9.192;2023-04-07T22:07:56;98810.06;;;9.64;81.76
41140;BME280;26881;48.784;9.192;2023-04-07T22:13:17;98813.84;;;9.58;83.36
41140;BME280;26881;48.784;9.192;2023-04-07T22:18:39;98809.47;;;9.59;82.63
41140;BME280;26881;48.784;9.192;2023-04-07T22:24:01;98823.19;;;9.62;82.34
41140;BME280;26881;48.784;9.192;2023-04-07T22:29:23;98822.97;;;9.49;82.70
41140;BME280;26881;48.784;9.192;2023-04-07T22:34:44;98816.63;;;9.38;83.47
41140;BME280;26881;48.784;9.192;2023-04-07T22:40:08;98828.03;;;9.53;83.07
41140;BME280;26881;48.784;9.192;2023-04-07T22:45:30;98829.03;;;9.50;83.59
41140;BME280;26881;48.784;9.192;2023-04-07T22:50:52;98832.19;;;9.57;82.80
41140;BME280;26881;48.784;9.192;2023-04-07T22:56:15;98823.59;;;9.55;83.32
41140;BME280;26881;48.784;9.192;2023-04-07T23:01:37;98828.03;;;9.53;83.67
41140;BME280;26881;48.784;9.192;2023-04-07T23:06:58;98828.75;;;9.56;84.18
41140;BME280;26881;48.784;9.192;2023-04-07T23:12:20;98831.13;;;9.61;83.94
41140;BME280;26881;48.784;9.192;2023-04-07T23:17:42;98831.66;;;9.50;84.37
41140;BME280;26881;48.784;9.192;2023-04-07T23:23:04;98846.09;;;9.57;83.84
41140;BME280;26881;48.784;9.192;2023-04-07T23:28:26;98842.78;;;9.54;84.33
41140;BME280;26881;48.784;9.192;2023-04-07T23:33:48;98852.25;;;9.56;84.38
41140;BME280;26881;48.784;9.192;2023-04-07T23:39:10;98853.13;;;9.55;84.40
41140;BME280;26881;48.784;9.192;2023-04-07T23:44:32;98856.16;;;9.47;85.06
41140;BME280;26881;48.784;9.192;2023-04-07T23:49:53;98858.00;;;9.45;85.12
41140;BME280;26881;48.784;9.192;2023-04-07T23:55:15;98858.00;;;9.45;84.73
